sensor_id;sensor_type;location;lat;lon;timestamp;P1;durP1;ratioP1;P2;durP2;ratioP2
44428;SDS011;30134;47.866;-4.222;2022-10-16T00:01:29;1.80;;;0.70;;
44428;SDS011;30134;47.866;-4.222;2022-10-16T00:03:57;1.13;;;0.70;;
44428;SDS011;30134;47.866;-4.222;2022-10-16T00:06:25;2.85;;;0.90;;
44428;SDS011;30134;47.866;-4.222;2022-10-16T00:08:53;2.58;;;0.98;;
44428;SDS011;30134;47.866;-4.222;2022-10-16T00:11:24;0.90;;;0.70;;
44428;SDS011;30134;47.866;-4.222;2022-10-16T00:14:01;1.58;;;0.88;;
44428;SDS011;30134;47.866;-4.222;2022-10-16T00:16:31;1.15;;;0.80;;
44428;SDS011;30134;47.866;-4.222;2022-10-16T00:18:58;1.00;;;0.90;;
44428;SDS011;30134;47.866;-4.222;2022-10-16T00:21:28;1.77;;;0.70;;
44428;SDS011;30134;47.866;-4.222;2022-10-16T00:23:57;1.17;;;0.75;;
44428;SDS011;30134;47.866;-4.222;2022-10-16T00:26:30;0.63;;;0.60;;
44428;SDS011;30134;47.866;-4.222;2022-10-16T00:28:59;1.15;;;0.90;;
44428;SDS011;30134;47.866;-4.222;2022-10-16T00:31:25;0.82;;;0.80;;
44428;SDS011;30134;47.866;-4.222;2022-10-16T00:33:52;1.70;;;1.00;;
44428;SDS011;30134;47.866;-4.222;2022-10-16T00:36:20;1.10;;;0.73;;
44428;SDS011;30134;47.866;-4.222;2022-10-16T00:38:50;1.33;;;0.90;;
44428;SDS011;30134;47.866;-4.222;2022-10-16T00:41:19;1.55;;;0.80;;
44428;SDS011;30134;47.866;-4.222;2022-10-16T00:49:08;4.03;;;0.90;;
44428;SDS011;30134;47.866;-4.222;2022-10-16T00:54:21;0.82;;;0.70;;
44428;SDS011;30134;47.866;-4.222;2022-10-16T00:56:54;1.08;;;0.77;;
44428;SDS011;30134;47.866;-4.222;2022-10-16T00:59:29;0.95;;;0.68;;
44428;SDS011;30134;47.866;-4.222;2022-10-16T01:02:02;2.13;;;0.93;;
44428;SDS011;30134;47.866;-4.222;2022-10-16T01:04:38;1.00;;;0.60;;
44428;SDS011;30134;47.866;-4.222;2022-10-16T01:15:41;1.02;;;0.80;;
44428;SDS011;30134;47.866;-4.222;2022-10-16T01:21:16;0.77;;;0.70;;
44428;SDS011;30134;47.866;-4.222;2022-10-16T01:29:45;1.13;;;0.80;;
44428;SDS011;30134;47.866;-4.222;2022-10-16T01:32:55;0.60;;;0.60;;
44428;SDS011;30134;47.866;-4.222;2022-10-16T01:35:46;0.80;;;0.77;;
44428;SDS011;30134;47.866;-4.222;2022-10-16T01:38:20;0.88;;;0.73;;
44428;SDS011;30134;47.866;-4.222;2022-10-16T01:41:01;0.70;;;0.70;;
44428;SDS011;30134;47.866;-4.222;2022-10-16T01:43:41;0.95;;;0.70;;
44428;SDS011;30134;47.866;-4.222;2022-10-16T01:46:18;1.00;;;0.90;;
44428;SDS011;30134;47.866;-4.222;2022-10-16T01:48:46;1.58;;;0.80;;
44428;SDS011;30134;47.866;-4.222;2022-10-16T01:51:18;0.68;;;0.63;;
44428;SDS011;30134;47.866;-4.222;2022-10-16T01:53:48;1.00;;;0.80;;
44428;SDS011;30134;47.866;-4.222;2022-10-16T01:56:19;1.75;;;0.98;;
44428;SDS011;30134;47.866;-4.222;2022-10-16T01:58:49;1.42;;;0.80;;
44428;SDS011;30134;47.866;-4.222;2022-10-16T02:01:31;1.67;;;1.00;;
44428;SDS011;30134;47.866;-4.222;2022-10-16T02:04:07;1.40;;;0.80;;
44428;SDS011;30134;47.866;-4.222;2022-10-16T02:06:40;1.35;;;0.80;;
44428;SDS011;30134;47.866;-4.222;2022-10-16T02:09:06;0.60;;;0.60;;
44428;SDS011;30134;47.866;-4.222;2022-10-16T02:11:34;0.98;;;0.80;;
44428;SDS011;30134;47.866;-4.222;2022-10-16T02:14:01;0.82;;;0.75;;
44428;SDS011;30134;47.866;-4.222;2022-10-16T02:16:44;1.42;;;0.70;;
44428;SDS011;30134;47.866;-4.222;2022-10-16T02:19:14;0.73;;;0.60;;
44428;SDS011;30134;47.866;-4.222;2022-10-16T02:30:14;0.75;;;0.63;;
44428;SDS011;30134;47.866;-4.222;2022-10-16T02:33:16;0.90;;;0.63;;
44428;SDS011;30134;47.866;-4.222;2022-10-16T02:35:45;0.93;;;0.70;;
44428;SDS011;30134;47.866;-4.222;2022-10-16T02:38:14;1.23;;;0.85;;
44428;SDS011;30134;47.866;-4.222;2022-10-16T02:40:41;1.25;;;0.80;;
44428;SDS011;30134;47.866;-4.222;2022-10-16T02:43:08;0.70;;;0.60;;
44428;SDS011;30134;47.866;-4.222;2022-10-16T02:45:36;0.77;;;0.68;;
44428;SDS011;30134;47.866;-4.222;2022-10-16T02:48:02;0.95;;;0.80;;
44428;SDS011;30134;47.866;-4.222;2022-10-16T02:50:29;1.00;;;0.82;;
44428;SDS011;30134;47.866;-4.222;2022-10-16T02:52:56;1.60;;;0.85;;
44428;SDS011;30134;47.866;-4.222;2022-10-16T02:55:22;1.38;;;0.98;;
44428;SDS011;30134;47.866;-4.222;2022-10-16T02:57:48;1.50;;;1.00;;
44428;SDS011;30134;47.866;-4.222;2022-10-16T03:00:15;1.05;;;0.90;;
44428;SDS011;30134;47.866;-4.222;2022-10-16T03:02:43;1.00;;;0.90;;
44428;SDS011;30134;47.866;-4.222;2022-10-16T03:05:09;1.45;;;0.90;;
44428;SDS011;30134;47.866;-4.222;2022-10-16T03:07:36;2.10;;;1.10;;
44428;SDS011;30134;47.866;-4.222;2022-10-16T03:10:03;2.30;;;1.20;;
44428;SDS011;30134;47.866;-4.222;2022-10-16T03:12:30;1.80;;;1.30;;
44428;SDS011;30134;47.866;-4.222;2022-10-16T03:14:56;2.00;;;1.30;;
44428;SDS011;30134;47.866;-4.222;2022-10-16T03:17:23;1.20;;;1.10;;
44428;SDS011;30134;47.866;-4.222;2022-10-16T03:19:50;1.63;;;1.25;;
44428;SDS011;30134;47.866;-4.222;2022-10-16T03:22:17;2.72;;;1.75;;
44428;SDS011;30134;47.866;-4.222;2022-10-16T03:24:43;1.75;;;1.40;;
44428;SDS011;30134;47.866;-4.222;2022-10-16T03:27:09;2.15;;;1.45;;
44428;SDS011;30134;47.866;-4.222;2022-10-16T03:29:35;1.73;;;1.23;;
44428;SDS011;30134;47.866;-4.222;2022-10-16T03:32:02;2.30;;;1.63;;
44428;SDS011;30134;47.866;-4.222;2022-10-16T03:34:28;1.73;;;1.50;;
44428;SDS011;30134;47.866;-4.222;2022-10-16T03:36:55;2.47;;;1.77;;
44428;SDS011;30134;47.866;-4.222;2022-10-16T03:39:21;3.05;;;1.60;;
44428;SDS011;30134;47.866;-4.222;2022-10-16T03:41:48;2.72;;;1.67;;
44428;SDS011;30134;47.866;-4.222;2022-10-16T03:44:14;2.53;;;1.92;;
44428;SDS011;30134;47.866;-4.222;2022-10-16T03:46:41;2.13;;;1.85;;
44428;SDS011;30134;47.866;-4.222;2022-10-16T03:49:07;2.60;;;1.65;;
44428;SDS011;30134;47.866;-4.222;2022-10-16T03:51:33;2.65;;;1.92;;
44428;SDS011;30134;47.866;-4.222;2022-10-16T03:54:00;2.75;;;1.90;;
44428;SDS011;30134;47.866;-4.222;2022-10-16T03:56:26;2.47;;;1.90;;
44428;SDS011;30134;47.866;-4.222;2022-10-16T03:58:53;3.03;;;2.30;;
44428;SDS011;30134;47.866;-4.222;2022-10-16T04:01:19;4.38;;;2.47;;
44428;SDS011;30134;47.866;-4.222;2022-10-16T04:03:45;3.20;;;2.45;;
44428;SDS011;30134;47.866;-4.222;2022-10-16T04:06:12;4.05;;;2.50;;
44428;SDS011;30134;47.866;-4.222;2022-10-16T04:08:38;3.38;;;2.40;;
44428;SDS011;30134;47.866;-4.222;2022-10-16T04:11:07;3.15;;;2.30;;
44428;SDS011;30134;47.866;-4.222;2022-10-16T04:13:33;3.05;;;2.33;;
44428;SDS011;30134;47.866;-4.222;2022-10-16T04:15:59;3.17;;;2.08;;
44428;SDS011;30134;47.866;-4.222;2022-10-16T04:18:26;3.22;;;2.22;;
44428;SDS011;30134;47.866;-4.222;2022-10-16T04:20:53;3.15;;;2.50;;
44428;SDS011;30134;47.866;-4.222;2022-10-16T04:23:20;2.80;;;2.28;;
44428;SDS011;30134;47.866;-4.222;2022-10-16T04:25:48;3.65;;;2.47;;
44428;SDS011;30134;47.866;-4.222;2022-10-16T04:28:14;4.30;;;3.00;;
44428;SDS011;30134;47.866;-4.222;2022-10-16T04:30:40;2.97;;;2.50;;
44428;SDS011;30134;47.866;-4.222;2022-10-16T04:33:08;2.95;;;2.45;;
44428;SDS011;30134;47.866;-4.222;2022-10-16T04:35:35;3.15;;;2.65;;
44428;SDS011;30134;47.866;-4.222;2022-10-16T04:38:01;3.22;;;2.33;;
44428;SDS011;30134;47.866;-4.222;2022-10-16T04:40:28;3.33;;;2.38;;
44428;SDS011;30134;47.866;-4.222;2022-10-16T04:42:58;3.72;;;2.65;;
44428;SDS011;30134;47.866;-4.222;2022-10-16T04:45:24;3.67;;;2.67;;
44428;SDS011;30134;47.866;-4.222;2022-10-16T04:47:51;3.50;;;2.65;;
44428;SDS011;30134;47.866;-4.222;2022-10-16T04:50:17;3.55;;;2.60;;
44428;SDS011;30134;47.866;-4.222;2022-10-16T04:52:46;3.25;;;2.53;;
44428;SDS011;30134;47.866;-4.222;2022-10-16T04:55:13;3.65;;;2.60;;
44428;SDS011;30134;47.866;-4.222;2022-10-16T04:57:40;3.92;;;2.72;;
44428;SDS011;30134;47.866;-4.222;2022-10-16T05:00:06;3.35;;;2.30;;
44428;SDS011;30134;47.866;-4.222;2022-10-16T05:02:33;3.38;;;2.75;;
44428;SDS011;30134;47.866;-4.222;2022-10-16T05:05:00;4.13;;;2.72;;
44428;SDS011;30134;47.866;-4.222;2022-10-16T05:07:26;3.63;;;2.78;;
44428;SDS011;30134;47.866;-4.222;2022-10-16T05:09:53;3.58;;;2.95;;
44428;SDS011;30134;47.866;-4.222;2022-10-16T05:12:19;3.97;;;2.60;;
44428;SDS011;30134;47.866;-4.222;2022-10-16T05:14:45;3.53;;;2.75;;
44428;SDS011;30134;47.866;-4.222;2022-10-16T05:17:12;3.47;;;2.65;;
44428;SDS011;30134;47.866;-4.222;2022-10-16T05:19:38;4.30;;;3.10;;
44428;SDS011;30134;47.866;-4.222;2022-10-16T05:22:05;3.47;;;2.72;;
44428;SDS011;30134;47.866;-4.222;2022-10-16T05:24:31;4.78;;;3.13;;
44428;SDS011;30134;47.866;-4.222;2022-10-16T05:26:57;3.10;;;2.55;;
44428;SDS011;30134;47.866;-4.222;2022-10-16T05:29:24;3.40;;;2.90;;
44428;SDS011;30134;47.866;-4.222;2022-10-16T05:31:51;3.80;;;3.03;;
44428;SDS011;30134;47.866;-4.222;2022-10-16T05:34:18;4.00;;;2.88;;
44428;SDS011;30134;47.866;-4.222;2022-10-16T05:36:46;3.28;;;2.65;;
44428;SDS011;30134;47.866;-4.222;2022-10-16T05:39:14;4.28;;;3.13;;
44428;SDS011;30134;47.866;-4.222;2022-10-16T05:41:41;3.88;;;2.88;;
44428;SDS011;30134;47.866;-4.222;2022-10-16T05:44:09;4.20;;;3.08;;
44428;SDS011;30134;47.866;-4.222;2022-10-16T05:46:36;4.13;;;2.95;;
44428;SDS011;30134;47.866;-4.222;2022-10-16T05:49:02;3.45;;;2.90;;
44428;SDS011;30134;47.866;-4.222;2022-10-16T05:51:28;4.70;;;3.53;;
44428;SDS011;30134;47.866;-4.222;2022-10-16T05:53:56;3.75;;;3.17;;
44428;SDS011;30134;47.866;-4.222;2022-10-16T05:56:23;3.55;;;3.20;;
44428;SDS011;30134;47.866;-4.222;2022-10-16T05:58:49;4.57;;;3.53;;
44428;SDS011;30134;47.866;-4.222;2022-10-16T06:01:17;4.40;;;3.53;;
44428;SDS011;30134;47.866;-4.222;2022-10-16T06:03:46;3.60;;;2.63;;
44428;SDS011;30134;47.866;-4.222;2022-10-16T06:08:44;5.10;;;3.75;;
44428;SDS011;30134;47.866;-4.222;2022-10-16T06:11:13;4.32;;;3.53;;
44428;SDS011;30134;47.866;-4.222;2022-10-16T06:13:42;4.68;;;3.30;;
44428;SDS011;30134;47.866;-4.222;2022-10-16T06:16:11;4.88;;;3.58;;
44428;SDS011;30134;47.866;-4.222;2022-10-16T06:18:38;4.35;;;3.38;;
44428;SDS011;30134;47.866;-4.222;2022-10-16T06:21:11;4.75;;;3.28;;
44428;SDS011;30134;47.866;-4.222;2022-10-16T06:23:47;4.13;;;3.40;;
44428;SDS011;30134;47.866;-4.222;2022-10-16T06:26:15;5.00;;;3.80;;
44428;SDS011;30134;47.866;-4.222;2022-10-16T06:28:45;3.80;;;3.17;;
44428;SDS011;30134;47.866;-4.222;2022-10-16T06:31:12;4.85;;;3.88;;
44428;SDS011;30134;47.866;-4.222;2022-10-16T06:33:39;4.13;;;3.28;;
44428;SDS011;30134;47.866;-4.222;2022-10-16T06:36:06;3.80;;;3.20;;
44428;SDS011;30134;47.866;-4.222;2022-10-16T06:38:40;4.38;;;3.45;;
44428;SDS011;30134;47.866;-4.222;2022-10-16T06:41:07;4.28;;;3.50;;
44428;SDS011;30134;47.866;-4.222;2022-10-16T06:43:41;4.55;;;3.50;;
44428;SDS011;30134;47.866;-4.222;2022-10-16T06:46:10;3.67;;;3.10;;
44428;SDS011;30134;47.866;-4.222;2022-10-16T06:48:38;6.53;;;3.75;;
44428;SDS011;30134;47.866;-4.222;2022-10-16T06:51:08;3.83;;;3.28;;
44428;SDS011;30134;47.866;-4.222;2022-10-16T06:56:17;4.03;;;3.63;;
44428;SDS011;30134;47.866;-4.222;2022-10-16T06:58:51;4.47;;;3.78;;
44428;SDS011;30134;47.866;-4.222;2022-10-16T07:01:19;5.00;;;3.70;;
44428;SDS011;30134;47.866;-4.222;2022-10-16T07:03:50;5.07;;;3.58;;
44428;SDS011;30134;47.866;-4.222;2022-10-16T07:06:17;4.13;;;3.53;;
44428;SDS011;30134;47.866;-4.222;2022-10-16T07:08:46;4.45;;;3.45;;
44428;SDS011;30134;47.866;-4.222;2022-10-16T07:11:14;4.53;;;3.40;;
44428;SDS011;30134;47.866;-4.222;2022-10-16T07:13:43;3.75;;;3.22;;
44428;SDS011;30134;47.866;-4.222;2022-10-16T07:16:11;4.78;;;3.40;;
44428;SDS011;30134;47.866;-4.222;2022-10-16T07:18:44;4.05;;;3.28;;
44428;SDS011;30134;47.866;-4.222;2022-10-16T07:21:12;4.28;;;3.47;;
44428;SDS011;30134;47.866;-4.222;2022-10-16T07:23:42;3.95;;;3.10;;
44428;SDS011;30134;47.866;-4.222;2022-10-16T07:26:11;4.20;;;3.38;;
44428;SDS011;30134;47.866;-4.222;2022-10-16T07:28:37;3.95;;;3.17;;
44428;SDS011;30134;47.866;-4.222;2022-10-16T07:31:05;4.45;;;3.03;;
44428;SDS011;30134;47.866;-4.222;2022-10-16T07:33:40;4.35;;;3.35;;
44428;SDS011;30134;47.866;-4.222;2022-10-16T07:36:09;3.75;;;3.03;;
44428;SDS011;30134;47.866;-4.222;2022-10-16T07:38:37;3.83;;;2.92;;
44428;SDS011;30134;47.866;-4.222;2022-10-16T07:41:04;4.45;;;3.50;;
44428;SDS011;30134;47.866;-4.222;2022-10-16T07:43:33;3.63;;;2.83;;
44428;SDS011;30134;47.866;-4.222;2022-10-16T07:45:59;3.30;;;2.70;;
44428;SDS011;30134;47.866;-4.222;2022-10-16T07:48:29;3.85;;;3.20;;
44428;SDS011;30134;47.866;-4.222;2022-10-16T07:50:59;4.15;;;3.13;;
44428;SDS011;30134;47.866;-4.222;2022-10-16T07:53:27;3.80;;;3.17;;
44428;SDS011;30134;47.866;-4.222;2022-10-16T07:55:57;3.60;;;2.88;;
44428;SDS011;30134;47.866;-4.222;2022-10-16T07:58:27;3.70;;;3.17;;
44428;SDS011;30134;47.866;-4.222;2022-10-16T08:00:54;5.07;;;3.10;;
44428;SDS011;30134;47.866;-4.222;2022-10-16T08:03:22;4.05;;;3.17;;
44428;SDS011;30134;47.866;-4.222;2022-10-16T08:05:49;3.20;;;2.78;;
44428;SDS011;30134;47.866;-4.222;2022-10-16T08:08:16;3.95;;;3.17;;
44428;SDS011;30134;47.866;-4.222;2022-10-16T08:10:43;3.58;;;2.97;;
44428;SDS011;30134;47.866;-4.222;2022-10-16T08:13:10;3.65;;;2.88;;
44428;SDS011;30134;47.866;-4.222;2022-10-16T08:15:36;4.43;;;3.08;;
44428;SDS011;30134;47.866;-4.222;2022-10-16T08:18:03;3.80;;;3.00;;
44428;SDS011;30134;47.866;-4.222;2022-10-16T08:20:31;3.72;;;2.95;;
44428;SDS011;30134;47.866;-4.222;2022-10-16T08:23:01;4.00;;;2.83;;
44428;SDS011;30134;47.866;-4.222;2022-10-16T08:25:27;4.15;;;3.08;;
44428;SDS011;30134;47.866;-4.222;2022-10-16T08:27:53;3.30;;;2.72;;
44428;SDS011;30134;47.866;-4.222;2022-10-16T08:30:20;3.78;;;2.70;;
44428;SDS011;30134;47.866;-4.222;2022-10-16T08:32:49;3.85;;;2.88;;
44428;SDS011;30134;47.866;-4.222;2022-10-16T08:35:15;3.58;;;2.90;;
44428;SDS011;30134;47.866;-4.222;2022-10-16T08:37:43;3.40;;;2.80;;
44428;SDS011;30134;47.866;-4.222;2022-10-16T08:40:19;3.45;;;2.63;;
44428;SDS011;30134;47.866;-4.222;2022-10-16T08:51:40;2.92;;;2.45;;
44428;SDS011;30134;47.866;-4.222;2022-10-16T08:54:14;3.38;;;2.33;;
44428;SDS011;30134;47.866;-4.222;2022-10-16T08:57:21;4.05;;;2.67;;
44428;SDS011;30134;47.866;-4.222;2022-10-16T08:59:51;3.92;;;2.83;;
44428;SDS011;30134;47.866;-4.222;2022-10-16T09:02:32;3.00;;;2.58;;
44428;SDS011;30134;47.866;-4.222;2022-10-16T09:12:09;3.28;;;2.47;;
44428;SDS011;30134;47.866;-4.222;2022-10-16T09:14:50;4.03;;;3.00;;
44428;SDS011;30134;47.866;-4.222;2022-10-16T09:20:32;4.32;;;2.38;;
44428;SDS011;30134;47.866;-4.222;2022-10-16T09:23:31;2.85;;;2.42;;
44428;SDS011;30134;47.866;-4.222;2022-10-16T09:26:01;3.17;;;2.53;;
44428;SDS011;30134;47.866;-4.222;2022-10-16T09:28:30;3.47;;;2.67;;
44428;SDS011;30134;47.866;-4.222;2022-10-16T09:30:56;3.50;;;2.60;;
44428;SDS011;30134;47.866;-4.222;2022-10-16T09:33:23;2.83;;;2.40;;
44428;SDS011;30134;47.866;-4.222;2022-10-16T09:35:55;4.68;;;2.60;;
44428;SDS011;30134;47.866;-4.222;2022-10-16T09:40:55;3.10;;;2.40;;
44428;SDS011;30134;47.866;-4.222;2022-10-16T09:43:25;3.58;;;2.58;;
44428;SDS011;30134;47.866;-4.222;2022-10-16T09:46:07;3.15;;;2.38;;
44428;SDS011;30134;47.866;-4.222;2022-10-16T09:48:49;4.38;;;2.80;;
44428;SDS011;30134;47.866;-4.222;2022-10-16T09:51:23;3.40;;;2.67;;
44428;SDS011;30134;47.866;-4.222;2022-10-16T09:53:57;3.15;;;2.53;;
44428;SDS011;30134;47.866;-4.222;2022-10-16T09:56:26;3.33;;;2.42;;
44428;SDS011;30134;47.866;-4.222;2022-10-16T09:58:56;2.88;;;2.40;;
44428;SDS011;30134;47.866;-4.222;2022-10-16T10:02:11;4.00;;;2.42;;
44428;SDS011;30134;47.866;-4.222;2022-10-16T10:04:18;3.22;;;2.22;;
44428;SDS011;30134;47.866;-4.222;2022-10-16T10:06:47;2.97;;;2.10;;
44428;SDS011;30134;47.866;-4.222;2022-10-16T10:09:37;3.92;;;2.38;;
44428;SDS011;30134;47.866;-4.222;2022-10-16T10:12:04;2.65;;;2.05;;
44428;SDS011;30134;47.866;-4.222;2022-10-16T10:14:46;3.17;;;2.60;;
44428;SDS011;30134;47.866;-4.222;2022-10-16T10:17:19;3.28;;;2.38;;
44428;SDS011;30134;47.866;-4.222;2022-10-16T10:19:48;3.42;;;2.40;;
44428;SDS011;30134;47.866;-4.222;2022-10-16T10:22:57;3.83;;;2.33;;
44428;SDS011;30134;47.866;-4.222;2022-10-16T10:36:37;4.75;;;2.58;;
44428;SDS011;30134;47.866;-4.222;2022-10-16T10:39:08;3.45;;;2.63;;
44428;SDS011;30134;47.866;-4.222;2022-10-16T10:51:23;3.53;;;2.42;;
44428;SDS011;30134;47.866;-4.222;2022-10-16T10:54:27;3.47;;;2.45;;
44428;SDS011;30134;47.866;-4.222;2022-10-16T10:57:10;3.30;;;2.35;;
44428;SDS011;30134;47.866;-4.222;2022-10-16T11:03:13;3.15;;;2.00;;
44428;SDS011;30134;47.866;-4.222;2022-10-16T11:05:56;2.63;;;2.05;;
44428;SDS011;30134;47.866;-4.222;2022-10-16T11:08:45;3.03;;;2.00;;
44428;SDS011;30134;47.866;-4.222;2022-10-16T11:11:24;2.92;;;1.80;;
44428;SDS011;30134;47.866;-4.222;2022-10-16T11:14:23;3.03;;;2.03;;
44428;SDS011;30134;47.866;-4.222;2022-10-16T11:24:42;2.88;;;2.00;;
44428;SDS011;30134;47.866;-4.222;2022-10-16T11:27:41;2.05;;;1.83;;
44428;SDS011;30134;47.866;-4.222;2022-10-16T11:30:22;2.53;;;1.88;;
44428;SDS011;30134;47.866;-4.222;2022-10-16T11:33:03;3.22;;;2.10;;
44428;SDS011;30134;47.866;-4.222;2022-10-16T11:41:26;2.22;;;1.83;;
44428;SDS011;30134;47.866;-4.222;2022-10-16T11:44:20;3.03;;;2.10;;
44428;SDS011;30134;47.866;-4.222;2022-10-16T11:50:01;2.13;;;1.90;;
44428;SDS011;30134;47.866;-4.222;2022-10-16T11:57:58;3.50;;;2.22;;
44428;SDS011;30134;47.866;-4.222;2022-10-16T12:03:42;3.75;;;2.08;;
44428;SDS011;30134;47.866;-4.222;2022-10-16T12:09:27;2.97;;;1.98;;
44428;SDS011;30134;47.866;-4.222;2022-10-16T12:12:00;1.80;;;1.60;;
44428;SDS011;30134;47.866;-4.222;2022-10-16T12:14:33;3.08;;;2.33;;
44428;SDS011;30134;47.866;-4.222;2022-10-16T12:17:04;3.50;;;1.58;;
44428;SDS011;30134;47.866;-4.222;2022-10-16T12:22:47;4.40;;;2.22;;
44428;SDS011;30134;47.866;-4.222;2022-10-16T12:25:22;3.58;;;2.17;;
44428;SDS011;30134;47.866;-4.222;2022-10-16T12:30:25;2.28;;;1.55;;
44428;SDS011;30134;47.866;-4.222;2022-10-16T12:32:55;2.95;;;2.00;;
44428;SDS011;30134;47.866;-4.222;2022-10-16T12:35:45;4.20;;;2.10;;
44428;SDS011;30134;47.866;-4.222;2022-10-16T12:38:16;3.05;;;1.98;;
44428;SDS011;30134;47.866;-4.222;2022-10-16T12:41:00;3.60;;;2.22;;
44428;SDS011;30134;47.866;-4.222;2022-10-16T12:43:37;3.42;;;2.08;;
44428;SDS011;30134;47.866;-4.222;2022-10-16T12:48:35;2.85;;;2.00;;
44428;SDS011;30134;47.866;-4.222;2022-10-16T12:54:12;4.00;;;2.20;;
44428;SDS011;30134;47.866;-4.222;2022-10-16T12:59:34;4.05;;;2.40;;
44428;SDS011;30134;47.866;-4.222;2022-10-16T13:05:21;4.30;;;2.20;;
44428;SDS011;30134;47.866;-4.222;2022-10-16T13:14:04;3.78;;;1.92;;
44428;SDS011;30134;47.866;-4.222;2022-10-16T13:28:10;5.00;;;2.20;;
44428;SDS011;30134;47.866;-4.222;2022-10-16T13:33:37;3.72;;;1.90;;
44428;SDS011;30134;47.866;-4.222;2022-10-16T13:39:16;2.90;;;1.85;;
44428;SDS011;30134;47.866;-4.222;2022-10-16T13:44:51;3.95;;;2.00;;
44428;SDS011;30134;47.866;-4.222;2022-10-16T13:47:20;3.22;;;2.08;;
44428;SDS011;30134;47.866;-4.222;2022-10-16T13:52:42;3.30;;;2.00;;
44428;SDS011;30134;47.866;-4.222;2022-10-16T13:55:16;4.15;;;2.08;;
44428;SDS011;30134;47.866;-4.222;2022-10-16T13:57:43;5.60;;;2.00;;
44428;SDS011;30134;47.866;-4.222;2022-10-16T14:00:23;2.78;;;1.70;;
44428;SDS011;30134;47.866;-4.222;2022-10-16T14:03:13;3.17;;;1.90;;
44428;SDS011;30134;47.866;-4.222;2022-10-16T14:05:48;4.22;;;1.92;;
44428;SDS011;30134;47.866;-4.222;2022-10-16T14:08:20;2.20;;;1.65;;
44428;SDS011;30134;47.866;-4.222;2022-10-16T14:10:50;2.67;;;1.75;;
44428;SDS011;30134;47.866;-4.222;2022-10-16T14:13:21;3.78;;;1.75;;
44428;SDS011;30134;47.866;-4.222;2022-10-16T14:16:07;3.08;;;1.60;;
44428;SDS011;30134;47.866;-4.222;2022-10-16T14:18:37;3.78;;;1.92;;
44428;SDS011;30134;47.866;-4.222;2022-10-16T14:21:11;3.38;;;1.77;;
44428;SDS011;30134;47.866;-4.222;2022-10-16T14:23:40;3.88;;;2.15;;
44428;SDS011;30134;47.866;-4.222;2022-10-16T14:28:34;4.00;;;1.75;;
44428;SDS011;30134;47.866;-4.222;2022-10-16T14:31:02;3.55;;;1.70;;
44428;SDS011;30134;47.866;-4.222;2022-10-16T14:33:58;2.83;;;1.80;;
44428;SDS011;30134;47.866;-4.222;2022-10-16T14:36:26;2.78;;;1.70;;
44428;SDS011;30134;47.866;-4.222;2022-10-16T14:38:58;4.22;;;2.17;;
44428;SDS011;30134;47.866;-4.222;2022-10-16T14:41:31;3.97;;;1.85;;
44428;SDS011;30134;47.866;-4.222;2022-10-16T14:44:09;3.30;;;2.00;;
44428;SDS011;30134;47.866;-4.222;2022-10-16T14:46:38;2.92;;;1.63;;
44428;SDS011;30134;47.866;-4.222;2022-10-16T14:51:37;2.88;;;1.52;;
44428;SDS011;30134;47.866;-4.222;2022-10-16T14:54:10;4.35;;;1.85;;
44428;SDS011;30134;47.866;-4.222;2022-10-16T14:56:45;2.60;;;1.85;;
44428;SDS011;30134;47.866;-4.222;2022-10-16T14:59:56;3.08;;;2.00;;
44428;SDS011;30134;47.866;-4.222;2022-10-16T15:04:58;3.58;;;1.65;;
44428;SDS011;30134;47.866;-4.222;2022-10-16T15:07:42;3.00;;;1.70;;
44428;SDS011;30134;47.866;-4.222;2022-10-16T15:10:09;3.20;;;1.55;;
44428;SDS011;30134;47.866;-4.222;2022-10-16T15:12:38;4.68;;;1.83;;
44428;SDS011;30134;47.866;-4.222;2022-10-16T15:17:52;4.90;;;1.83;;
44428;SDS011;30134;47.866;-4.222;2022-10-16T15:20:25;3.13;;;1.75;;
44428;SDS011;30134;47.866;-4.222;2022-10-16T15:22:52;4.67;;;2.00;;
44428;SDS011;30134;47.866;-4.222;2022-10-16T15:25:26;3.03;;;1.55;;
44428;SDS011;30134;47.866;-4.222;2022-10-16T15:28:08;3.67;;;1.80;;
44428;SDS011;30134;47.866;-4.222;2022-10-16T15:30:35;3.17;;;1.63;;
44428;SDS011;30134;47.866;-4.222;2022-10-16T15:33:02;3.72;;;1.80;;
44428;SDS011;30134;47.866;-4.222;2022-10-16T15:35:33;2.50;;;1.55;;
44428;SDS011;30134;47.866;-4.222;2022-10-16T15:37:59;2.25;;;1.63;;
44428;SDS011;30134;47.866;-4.222;2022-10-16T15:40:25;2.92;;;1.60;;
44428;SDS011;30134;47.866;-4.222;2022-10-16T15:42:51;3.10;;;1.63;;
44428;SDS011;30134;47.866;-4.222;2022-10-16T15:45:17;2.95;;;1.40;;
44428;SDS011;30134;47.866;-4.222;2022-10-16T15:47:44;3.83;;;1.80;;
44428;SDS011;30134;47.866;-4.222;2022-10-16T15:50:12;3.33;;;1.60;;
44428;SDS011;30134;47.866;-4.222;2022-10-16T15:52:41;2.58;;;1.48;;
44428;SDS011;30134;47.866;-4.222;2022-10-16T15:55:08;2.72;;;1.70;;
44428;SDS011;30134;47.866;-4.222;2022-10-16T15:57:36;3.95;;;1.42;;
44428;SDS011;30134;47.866;-4.222;2022-10-16T16:00:09;2.58;;;1.45;;
44428;SDS011;30134;47.866;-4.222;2022-10-16T16:02:38;2.35;;;1.60;;
44428;SDS011;30134;47.866;-4.222;2022-10-16T16:05:06;2.42;;;1.50;;
44428;SDS011;30134;47.866;-4.222;2022-10-16T16:07:37;1.88;;;1.27;;
44428;SDS011;30134;47.866;-4.222;2022-10-16T16:10:09;2.28;;;1.70;;
44428;SDS011;30134;47.866;-4.222;2022-10-16T16:12:37;2.38;;;1.50;;
44428;SDS011;30134;47.866;-4.222;2022-10-16T16:15:04;2.88;;;1.52;;
44428;SDS011;30134;47.866;-4.222;2022-10-16T16:17:33;1.85;;;1.60;;
44428;SDS011;30134;47.866;-4.222;2022-10-16T16:20:00;2.47;;;1.50;;
44428;SDS011;30134;47.866;-4.222;2022-10-16T16:22:26;3.85;;;1.63;;
44428;SDS011;30134;47.866;-4.222;2022-10-16T16:24:52;2.78;;;1.40;;
44428;SDS011;30134;47.866;-4.222;2022-10-16T16:27:18;2.40;;;1.35;;
44428;SDS011;30134;47.866;-4.222;2022-10-16T16:29:45;3.33;;;1.50;;
44428;SDS011;30134;47.866;-4.222;2022-10-16T16:32:11;1.90;;;1.23;;
44428;SDS011;30134;47.866;-4.222;2022-10-16T16:34:37;1.65;;;1.27;;
44428;SDS011;30134;47.866;-4.222;2022-10-16T16:37:03;3.17;;;1.60;;
44428;SDS011;30134;47.866;-4.222;2022-10-16T16:39:29;3.60;;;1.60;;
44428;SDS011;30134;47.866;-4.222;2022-10-16T16:41:56;4.75;;;1.67;;
44428;SDS011;30134;47.866;-4.222;2022-10-16T16:44:23;2.20;;;1.30;;
44428;SDS011;30134;47.866;-4.222;2022-10-16T16:46:50;2.75;;;1.38;;
44428;SDS011;30134;47.866;-4.222;2022-10-16T16:49:17;2.00;;;1.25;;
44428;SDS011;30134;47.866;-4.222;2022-10-16T16:51:43;2.35;;;1.20;;
44428;SDS011;30134;47.866;-4.222;2022-10-16T16:54:09;2.55;;;1.60;;
44428;SDS011;30134;47.866;-4.222;2022-10-16T16:56:37;4.65;;;1.15;;
44428;SDS011;30134;47.866;-4.222;2022-10-16T16:59:04;2.33;;;1.23;;
44428;SDS011;30134;47.866;-4.222;2022-10-16T17:01:30;1.55;;;1.15;;
44428;SDS011;30134;47.866;-4.222;2022-10-16T17:03:57;2.25;;;1.40;;
44428;SDS011;30134;47.866;-4.222;2022-10-16T17:06:26;2.13;;;1.40;;
44428;SDS011;30134;47.866;-4.222;2022-10-16T17:08:55;1.67;;;1.40;;
44428;SDS011;30134;47.866;-4.222;2022-10-16T17:11:22;1.75;;;1.17;;
44428;SDS011;30134;47.866;-4.222;2022-10-16T17:13:51;2.20;;;1.20;;
44428;SDS011;30134;47.866;-4.222;2022-10-16T17:16:20;1.98;;;1.13;;
44428;SDS011;30134;47.866;-4.222;2022-10-16T17:18:52;2.70;;;1.25;;
44428;SDS011;30134;47.866;-4.222;2022-10-16T17:21:19;1.38;;;1.02;;
44428;SDS011;30134;47.866;-4.222;2022-10-16T17:23:45;1.52;;;1.15;;
44428;SDS011;30134;47.866;-4.222;2022-10-16T17:26:12;1.85;;;1.30;;
44428;SDS011;30134;47.866;-4.222;2022-10-16T17:28:40;2.53;;;1.33;;
44428;SDS011;30134;47.866;-4.222;2022-10-16T17:33:36;2.22;;;1.40;;
44428;SDS011;30134;47.866;-4.222;2022-10-16T17:36:02;1.90;;;1.25;;
44428;SDS011;30134;47.866;-4.222;2022-10-16T17:38:29;1.80;;;1.40;;
44428;SDS011;30134;47.866;-4.222;2022-10-16T17:40:55;3.03;;;1.08;;
44428;SDS011;30134;47.866;-4.222;2022-10-16T17:43:21;1.65;;;1.17;;
44428;SDS011;30134;47.866;-4.222;2022-10-16T17:45:47;2.13;;;1.20;;
44428;SDS011;30134;47.866;-4.222;2022-10-16T17:48:14;2.92;;;1.40;;